sensor_id;sensor_type;location;lat;lon;timestamp;temperature;humidity
7494;DHT22;3788;49.902;8.590;2023-04-16T00:00:47;10.10;99.90
7494;DHT22;3788;49.902;8.590;2023-04-16T00:03:14;10.10;99.90
7494;DHT22;3788;49.902;8.590;2023-04-16T00:05:41;10.10;99.90
7494;DHT22;3788;49.902;8.590;2023-04-16T00:08:08;10.00;99.90
7494;DHT22;3788;49.902;8.590;2023-04-16T00:10:36;10.10;99.90
7494;DHT22;3788;49.902;8.590;2023-04-16T00:13:02;10.10;99.90
7494;DHT22;3788;49.902;8.590;2023-04-16T00:15:29;10.10;99.90
7494;DHT22;3788;49.902;8.590;2023-04-16T00:17:56;10.10;99.90
7494;DHT22;3788;49.902;8.590;2023-04-16T00:20:23;10.10;99.90
7494;DHT22;3788;49.902;8.590;2023-04-16T00:22:50;10.10;99.90
7494;DHT22;3788;49.902;8.590;2023-04-16T00:25:16;10.00;99.90
7494;DHT22;3788;49.902;8.590;2023-04-16T00:27:45;10.00;99.90
7494;DHT22;3788;49.902;8.590;2023-04-16T00:30:12;10.00;99.90
7494;DHT22;3788;49.902;8.590;2023-04-16T00:32:38;10.00;99.90
7494;DHT22;3788;49.902;8.590;2023-04-16T00:35:06;10.00;99.90
7494;DHT22;3788;49.902;8.590;2023-04-16T00:37:33;10.00;99.90
7494;DHT22;3788;49.902;8.590;2023-04-16T00:39:59;10.00;99.90
7494;DHT22;3788;49.902;8.590;2023-04-16T00:42:26;10.00;99.90
7494;DHT22;3788;49.902;8.590;2023-04-16T00:44:54;10.00;99.90
7494;DHT22;3788;49.902;8.590;2023-04-16T00:47:21;10.00;99.90
7494;DHT22;3788;49.902;8.590;2023-04-16T00:49:48;10.00;99.90
7494;DHT22;3788;49.902;8.590;2023-04-16T00:52:15;10.00;99.90
7494;DHT22;3788;49.902;8.590;2023-04-16T00:54:42;10.00;99.90
7494;DHT22;3788;49.902;8.590;2023-04-16T00:57:09;10.00;99.90
7494;DHT22;3788;49.902;8.590;2023-04-16T00:59:35;10.00;99.90
7494;DHT22;3788;49.902;8.590;2023-04-16T01:02:04;10.00;99.90
7494;DHT22;3788;49.902;8.590;2023-04-16T01:04:30;10.00;99.90
7494;DHT22;3788;49.902;8.590;2023-04-16T01:06:58;10.00;99.90
7494;DHT22;3788;49.902;8.590;2023-04-16T01:09:25;10.00;99.90
7494;DHT22;3788;49.902;8.590;2023-04-16T01:11:52;10.00;99.90
7494;DHT22;3788;49.902;8.590;2023-04-16T01:14:18;10.00;99.90
7494;DHT22;3788;49.902;8.590;2023-04-16T01:16:45;10.00;99.90
7494;DHT22;3788;49.902;8.590;2023-04-16T01:19:13;10.00;99.90
7494;DHT22;3788;49.902;8.590;2023-04-16T01:21:41;10.00;99.90
7494;DHT22;3788;49.902;8.590;2023-04-16T01:24:07;10.00;99.90
7494;DHT22;3788;49.902;8.590;2023-04-16T01:26:34;10.00;99.90
7494;DHT22;3788;49.902;8.590;2023-04-16T01:29:01;10.00;99.90
7494;DHT22;3788;49.902;8.590;2023-04-16T01:31:28;10.00;99.90
7494;DHT22;3788;49.902;8.590;2023-04-16T01:33:55;10.00;99.90
7494;DHT22;3788;49.902;8.590;2023-04-16T01:36:21;10.00;99.90
7494;DHT22;3788;49.902;8.590;2023-04-16T01:38:49;10.00;99.90
7494;DHT22;3788;49.902;8.590;2023-04-16T01:41:16;10.10;99.90
7494;DHT22;3788;49.902;8.590;2023-04-16T01:43:43;10.00;99.90
7494;DHT22;3788;49.902;8.590;2023-04-16T01:46:14;10.00;99.90
7494;DHT22;3788;49.902;8.590;2023-04-16T01:48:41;10.00;99.90
7494;DHT22;3788;49.902;8.590;2023-04-16T01:51:08;10.00;99.90
7494;DHT22;3788;49.902;8.590;2023-04-16T01:53:35;10.00;99.90
7494;DHT22;3788;49.902;8.590;2023-04-16T01:56:04;10.00;99.90
7494;DHT22;3788;49.902;8.590;2023-04-16T01:58:31;10.10;99.90
7494;DHT22;3788;49.902;8.590;2023-04-16T02:00:58;10.00;99.90
7494;DHT22;3788;49.902;8.590;2023-04-16T02:03:25;10.10;99.90
7494;DHT22;3788;49.902;8.590;2023-04-16T02:05:52;10.10;99.90
7494;DHT22;3788;49.902;8.590;2023-04-16T02:08:19;10.10;99.90
7494;DHT22;3788;49.902;8.590;2023-04-16T02:10:45;10.10;99.90
7494;DHT22;3788;49.902;8.590;2023-04-16T02:13:14;10.10;99.90
7494;DHT22;3788;49.902;8.590;2023-04-16T02:15:44;10.10;99.90
7494;DHT22;3788;49.902;8.590;2023-04-16T02:18:12;10.10;99.90
7494;DHT22;3788;49.902;8.590;2023-04-16T02:20:39;10.10;99.90
7494;DHT22;3788;49.902;8.590;2023-04-16T02:23:06;10.10;99.90
7494;DHT22;3788;49.902;8.590;2023-04-16T02:25:37;10.10;99.90
7494;DHT22;3788;49.902;8.590;2023-04-16T02:28:05;10.10;99.90
7494;DHT22;3788;49.902;8.590;2023-04-16T02:30:33;10.00;99.90
7494;DHT22;3788;49.902;8.590;2023-04-16T02:33:00;10.00;99.90
7494;DHT22;3788;49.902;8.590;2023-04-16T02:35:28;10.00;99.90
7494;DHT22;3788;49.902;8.590;2023-04-16T02:37:54;10.00;99.90
7494;DHT22;3788;49.902;8.590;2023-04-16T02:40:21;10.00;99.90
7494;DHT22;3788;49.902;8.590;2023-04-16T02:42:47;10.00;99.90
7494;DHT22;3788;49.902;8.590;2023-04-16T02:45:14;10.00;99.90
7494;DHT22;3788;49.902;8.590;2023-04-16T02:47:42;10.10;99.90
7494;DHT22;3788;49.902;8.590;2023-04-16T02:50:09;10.00;99.90
7494;DHT22;3788;49.902;8.590;2023-04-16T02:52:36;10.10;99.90
7494;DHT22;3788;49.902;8.590;2023-04-16T02:55:03;10.10;99.90
7494;DHT22;3788;49.902;8.590;2023-04-16T02:57:30;10.10;99.90
7494;DHT22;3788;49.902;8.590;2023-04-16T02:59:57;10.00;99.90
7494;DHT22;3788;49.902;8.590;2023-04-16T03:02:24;10.00;99.90
7494;DHT22;3788;49.902;8.590;2023-04-16T03:04:52;10.00;99.90
7494;DHT22;3788;49.902;8.590;2023-04-16T03:07:18;10.10;99.90
7494;DHT22;3788;49.902;8.590;2023-04-16T03:09:45;10.00;99.90
7494;DHT22;3788;49.902;8.590;2023-04-16T03:12:12;10.00;99.90
7494;DHT22;3788;49.902;8.590;2023-04-16T03:14:38;10.00;99.90
7494;DHT22;3788;49.902;8.590;2023-04-16T03:17:05;10.00;99.90
7494;DHT22;3788;49.902;8.590;2023-04-16T03:19:32;10.00;99.90
7494;DHT22;3788;49.902;8.590;2023-04-16T03:22:00;10.00;99.90
7494;DHT22;3788;49.902;8.590;2023-04-16T03:24:27;10.00;99.90
7494;DHT22;3788;49.902;8.590;2023-04-16T03:26:54;10.00;99.90
7494;DHT22;3788;49.902;8.590;2023-04-16T03:29:22;10.00;99.90
7494;DHT22;3788;49.902;8.590;2023-04-16T03:31:49;10.00;99.90
7494;DHT22;3788;49.902;8.590;2023-04-16T03:34:15;10.00;99.90
7494;DHT22;3788;49.902;8.590;2023-04-16T03:36:42;10.00;99.90
7494;DHT22;3788;49.902;8.590;2023-04-16T03:39:10;10.00;99.90
7494;DHT22;3788;49.902;8.590;2023-04-16T03:41:37;10.00;99.90
7494;DHT22;3788;49.902;8.590;2023-04-16T03:44:04;10.00;99.90
7494;DHT22;3788;49.902;8.590;2023-04-16T03:46:30;10.00;99.90
7494;DHT22;3788;49.902;8.590;2023-04-16T03:48:57;10.00;99.90
7494;DHT22;3788;49.902;8.590;2023-04-16T03:51:24;10.00;99.90
7494;DHT22;3788;49.902;8.590;2023-04-16T03:53:50;10.00;99.90
7494;DHT22;3788;49.902;8.590;2023-04-16T03:56:18;10.00;99.90
7494;DHT22;3788;49.902;8.590;2023-04-16T03:58:45;10.00;99.90
7494;DHT22;3788;49.902;8.590;2023-04-16T04:01:12;10.00;99.90
7494;DHT22;3788;49.902;8.590;2023-04-16T04:03:38;10.00;99.90
7494;DHT22;3788;49.902;8.590;2023-04-16T04:06:06;10.00;99.90
7494;DHT22;3788;49.902;8.590;2023-04-16T04:08:33;10.00;99.90
7494;DHT22;3788;49.902;8.590;2023-04-16T04:10:59;9.90;99.90
7494;DHT22;3788;49.902;8.590;2023-04-16T04:13:27;9.90;99.90
7494;DHT22;3788;49.902;8.590;2023-04-16T04:15:54;9.90;99.90
7494;DHT22;3788;49.902;8.590;2023-04-16T04:18:21;9.90;99.90
7494;DHT22;3788;49.902;8.590;2023-04-16T04:20:47;9.90;99.90
7494;DHT22;3788;49.902;8.590;2023-04-16T04:23:14;10.00;99.90
7494;DHT22;3788;49.902;8.590;2023-04-16T04:25:41;10.00;99.90
7494;DHT22;3788;49.902;8.590;2023-04-16T04:28:07;10.00;99.90
7494;DHT22;3788;49.902;8.590;2023-04-16T04:30:35;9.90;99.90
7494;DHT22;3788;49.902;8.590;2023-04-16T04:33:02;10.00;99.90
7494;DHT22;3788;49.902;8.590;2023-04-16T04:35:29;10.00;99.90
7494;DHT22;3788;49.902;8.590;2023-04-16T04:37:56;10.00;99.90
7494;DHT22;3788;49.902;8.590;2023-04-16T04:40:22;10.00;99.90
7494;DHT22;3788;49.902;8.590;2023-04-16T04:42:49;9.90;99.90
7494;DHT22;3788;49.902;8.590;2023-04-16T04:45:16;9.90;99.90
7494;DHT22;3788;49.902;8.590;2023-04-16T04:47:44;9.90;99.90
7494;DHT22;3788;49.902;8.590;2023-04-16T04:50:11;9.90;99.90
7494;DHT22;3788;49.902;8.590;2023-04-16T04:52:38;9.90;99.90
7494;DHT22;3788;49.902;8.590;2023-04-16T04:55:05;9.90;99.90
7494;DHT22;3788;49.902;8.590;2023-04-16T04:57:31;9.90;99.90
7494;DHT22;3788;49.902;8.590;2023-04-16T04:59:58;10.00;99.90
7494;DHT22;3788;49.902;8.590;2023-04-16T05:02:27;10.00;99.90
7494;DHT22;3788;49.902;8.590;2023-04-16T05:04:55;10.00;99.90
7494;DHT22;3788;49.902;8.590;2023-04-16T05:07:22;10.00;99.90
7494;DHT22;3788;49.902;8.590;2023-04-16T05:09:49;10.00;99.90
7494;DHT22;3788;49.902;8.590;2023-04-16T05:12:16;10.10;99.90
7494;DHT22;3788;49.902;8.590;2023-04-16T05:14:43;10.10;99.90
7494;DHT22;3788;49.902;8.590;2023-04-16T05:17:09;10.10;99.90
7494;DHT22;3788;49.902;8.590;2023-04-16T05:19:36;10.10;99.90
7494;DHT22;3788;49.902;8.590;2023-04-16T05:22:04;10.20;99.90
7494;DHT22;3788;49.902;8.590;2023-04-16T05:24:31;10.20;99.90
7494;DHT22;3788;49.902;8.590;2023-04-16T05:26:58;10.20;99.90
7494;DHT22;3788;49.902;8.590;2023-04-16T05:29:24;10.20;99.90
7494;DHT22;3788;49.902;8.590;2023-04-16T05:31:51;10.20;99.90
7494;DHT22;3788;49.902;8.590;2023-04-16T05:34:18;10.20;99.90
7494;DHT22;3788;49.902;8.590;2023-04-16T05:36:45;10.20;99.90
7494;DHT22;3788;49.902;8.590;2023-04-16T05:39:15;10.20;99.90
7494;DHT22;3788;49.902;8.590;2023-04-16T05:41:42;10.20;99.90
7494;DHT22;3788;49.902;8.590;2023-04-16T05:44:09;10.20;99.90
7494;DHT22;3788;49.902;8.590;2023-04-16T05:46:36;10.20;99.90
7494;DHT22;3788;49.902;8.590;2023-04-16T05:49:02;10.20;99.90
7494;DHT22;3788;49.902;8.590;2023-04-16T05:51:29;10.10;99.90
7494;DHT22;3788;49.902;8.590;2023-04-16T05:53:56;10.20;99.90
7494;DHT22;3788;49.902;8.590;2023-04-16T05:56:24;10.20;99.90
7494;DHT22;3788;49.902;8.590;2023-04-16T05:58:51;10.20;99.90
7494;DHT22;3788;49.902;8.590;2023-04-16T06:01:18;10.20;99.90
7494;DHT22;3788;49.902;8.590;2023-04-16T06:03:44;10.20;99.90
7494;DHT22;3788;49.902;8.590;2023-04-16T06:06:11;10.20;99.90
7494;DHT22;3788;49.902;8.590;2023-04-16T06:08:38;10.20;99.90
7494;DHT22;3788;49.902;8.590;2023-04-16T06:11:04;10.20;99.90
7494;DHT22;3788;49.902;8.590;2023-04-16T06:13:32;10.20;99.90
7494;DHT22;3788;49.902;8.590;2023-04-16T06:15:59;10.20;99.90
7494;DHT22;3788;49.902;8.590;2023-04-16T06:18:25;10.20;99.90
7494;DHT22;3788;49.902;8.590;2023-04-16T06:20:52;10.20;99.90
7494;DHT22;3788;49.902;8.590;2023-04-16T06:23:20;10.20;99.90
7494;DHT22;3788;49.902;8.590;2023-04-16T06:25:47;10.20;99.90
7494;DHT22;3788;49.902;8.590;2023-04-16T06:28:13;10.20;99.90
7494;DHT22;3788;49.902;8.590;2023-04-16T06:30:41;10.20;99.90
7494;DHT22;3788;49.902;8.590;2023-04-16T06:33:08;10.30;99.90
7494;DHT22;3788;49.902;8.590;2023-04-16T06:35:35;10.30;99.90
7494;DHT22;3788;49.902;8.590;2023-04-16T06:38:01;10.30;99.90
7494;DHT22;3788;49.902;8.590;2023-04-16T06:40:28;10.40;99.90
7494;DHT22;3788;49.902;8.590;2023-04-16T06:42:55;10.40;99.90
7494;DHT22;3788;49.902;8.590;2023-04-16T06:45:21;10.40;99.90
7494;DHT22;3788;49.902;8.590;2023-04-16T06:47:49;10.50;99.90
7494;DHT22;3788;49.902;8.590;2023-04-16T06:50:16;10.50;99.90
7494;DHT22;3788;49.902;8.590;2023-04-16T06:52:43;10.50;99.90
7494;DHT22;3788;49.902;8.590;2023-04-16T06:55:10;10.60;99.90
7494;DHT22;3788;49.902;8.590;2023-04-16T06:57:37;10.60;99.90
7494;DHT22;3788;49.902;8.590;2023-04-16T07:00:06;10.60;99.90
7494;DHT22;3788;49.902;8.590;2023-04-16T07:02:33;10.60;99.90
7494;DHT22;3788;49.902;8.590;2023-04-16T07:05:01;10.60;99.90
7494;DHT22;3788;49.902;8.590;2023-04-16T07:07:27;10.60;99.90
7494;DHT22;3788;49.902;8.590;2023-04-16T07:09:54;10.70;99.90
7494;DHT22;3788;49.902;8.590;2023-04-16T07:12:21;10.70;99.90
7494;DHT22;3788;49.902;8.590;2023-04-16T07:14:47;10.60;99.90
7494;DHT22;3788;49.902;8.590;2023-04-16T07:17:14;10.60;99.90
7494;DHT22;3788;49.902;8.590;2023-04-16T07:19:40;10.60;99.90
7494;DHT22;3788;49.902;8.590;2023-04-16T07:22:08;10.50;99.90
7494;DHT22;3788;49.902;8.590;2023-04-16T07:24:35;10.40;99.90
7494;DHT22;3788;49.902;8.590;2023-04-16T07:27:02;10.40;99.90
7494;DHT22;3788;49.902;8.590;2023-04-16T07:29:29;10.40;99.90
7494;DHT22;3788;49.902;8.590;2023-04-16T07:31:56;10.40;99.90
7494;DHT22;3788;49.902;8.590;2023-04-16T07:34:23;10.40;99.90
7494;DHT22;3788;49.902;8.590;2023-04-16T07:36:49;10.40;99.90
7494;DHT22;3788;49.902;8.590;2023-04-16T07:39:18;10.30;99.90
7494;DHT22;3788;49.902;8.590;2023-04-16T07:41:45;10.40;99.90
7494;DHT22;3788;49.902;8.590;2023-04-16T07:44:11;10.40;99.90
7494;DHT22;3788;49.902;8.590;2023-04-16T07:46:39;10.30;99.90
7494;DHT22;3788;49.902;8.590;2023-04-16T07:49:05;10.30;99.90
7494;DHT22;3788;49.902;8.590;2023-04-16T07:51:32;10.30;99.90
7494;DHT22;3788;49.902;8.590;2023-04-16T07:54:01;10.30;99.90
7494;DHT22;3788;49.902;8.590;2023-04-16T07:56:30;10.30;99.90
7494;DHT22;3788;49.902;8.590;2023-04-16T07:58:56;10.30;99.90
7494;DHT22;3788;49.902;8.590;2023-04-16T08:01:23;10.30;99.90
7494;DHT22;3788;49.902;8.590;2023-04-16T08:03:50;10.20;99.90
7494;DHT22;3788;49.902;8.590;2023-04-16T08:06:16;10.20;99.90
7494;DHT22;3788;49.902;8.590;2023-04-16T08:08:44;10.20;99.90
7494;DHT22;3788;49.902;8.590;2023-04-16T08:11:10;10.20;99.90
7494;DHT22;3788;49.902;8.590;2023-04-16T08:13:39;10.20;99.90
7494;DHT22;3788;49.902;8.590;2023-04-16T08:16:07;10.20;99.90
7494;DHT22;3788;49.902;8.590;2023-04-16T08:18:33;10.20;99.90
7494;DHT22;3788;49.902;8.590;2023-04-16T08:21:00;10.20;99.90
7494;DHT22;3788;49.902;8.590;2023-04-16T08:23:27;10.20;99.90
7494;DHT22;3788;49.902;8.590;2023-04-16T08:25:54;10.20;99.90
7494;DHT22;3788;49.902;8.590;2023-04-16T08:28:20;10.20;99.90
7494;DHT22;3788;49.902;8.590;2023-04-16T08:30:49;10.20;99.90
7494;DHT22;3788;49.902;8.590;2023-04-16T08:33:15;10.20;99.90
7494;DHT22;3788;49.902;8.590;2023-04-16T08:35:42;10.30;99.90
7494;DHT22;3788;49.902;8.590;2023-04-16T08:38:09;10.20;99.90
7494;DHT22;3788;49.902;8.590;2023-04-16T08:40:37;10.20;99.90
7494;DHT22;3788;49.902;8.590;2023-04-16T08:43:09;10.20;99.90
7494;DHT22;3788;49.902;8.590;2023-04-16T08:45:37;10.20;99.90
7494;DHT22;3788;49.902;8.590;2023-04-16T08:48:06;10.30;99.90
7494;DHT22;3788;49.902;8.590;2023-04-16T08:50:34;10.30;99.90
7494;DHT22;3788;49.902;8.590;2023-04-16T08:53:03;10.30;99.90
7494;DHT22;3788;49.902;8.590;2023-04-16T08:55:35;10.30;99.90
7494;DHT22;3788;49.902;8.590;2023-04-16T08:58:07;10.30;99.90
7494;DHT22;3788;49.902;8.590;2023-04-16T09:00:36;10.40;99.90
7494;DHT22;3788;49.902;8.590;2023-04-16T09:03:07;10.40;99.90
7494;DHT22;3788;49.902;8.590;2023-04-16T09:05:35;10.40;99.90
7494;DHT22;3788;49.902;8.590;2023-04-16T09:08:02;10.50;99.90
7494;DHT22;3788;49.902;8.590;2023-04-16T09:10:30;10.50;99.90
7494;DHT22;3788;49.902;8.590;2023-04-16T09:12:57;10.50;99.90
7494;DHT22;3788;49.902;8.590;2023-04-16T09:15:24;10.50;99.90
7494;DHT22;3788;49.902;8.590;2023-04-16T09:17:51;10.60;99.90
7494;DHT22;3788;49.902;8.590;2023-04-16T09:20:20;10.60;99.90
7494;DHT22;3788;49.902;8.590;2023-04-16T09:22:47;10.70;99.90
7494;DHT22;3788;49.902;8.590;2023-04-16T09:25:14;10.70;99.90
7494;DHT22;3788;49.902;8.590;2023-04-16T09:27:41;10.80;99.90
7494;DHT22;3788;49.902;8.590;2023-04-16T09:30:18;10.80;99.90
7494;DHT22;3788;49.902;8.590;2023-04-16T09:32:47;10.90;99.90
7494;DHT22;3788;49.902;8.590;2023-04-16T09:35:15;10.90;99.90
7494;DHT22;3788;49.902;8.590;2023-04-16T09:37:46;10.90;99.90
7494;DHT22;3788;49.902;8.590;2023-04-16T09:40:23;10.90;99.90
7494;DHT22;3788;49.902;8.590;2023-04-16T09:42:51;10.90;99.90
7494;DHT22;3788;49.902;8.590;2023-04-16T09:45:19;10.90;99.90
7494;DHT22;3788;49.902;8.590;2023-04-16T09:47:46;10.90;99.90
7494;DHT22;3788;49.902;8.590;2023-04-16T09:50:15;10.90;99.90
7494;DHT22;3788;49.902;8.590;2023-04-16T09:52:44;10.90;99.90
7494;DHT22;3788;49.902;8.590;2023-04-16T09:55:13;10.90;99.90
7494;DHT22;3788;49.902;8.590;2023-04-16T09:57:40;11.00;99.90
7494;DHT22;3788;49.902;8.590;2023-04-16T10:00:08;11.00;99.90
7494;DHT22;3788;49.902;8.590;2023-04-16T10:02:38;11.00;99.90
7494;DHT22;3788;49.902;8.590;2023-04-16T10:05:06;11.00;99.90
7494;DHT22;3788;49.902;8.590;2023-04-16T10:07:35;11.10;99.90
7494;DHT22;3788;49.902;8.590;2023-04-16T10:10:04;11.10;99.90
7494;DHT22;3788;49.902;8.590;2023-04-16T10:12:31;11.20;99.90
7494;DHT22;3788;49.902;8.590;2023-04-16T10:14:58;11.20;99.90
7494;DHT22;3788;49.902;8.590;2023-04-16T10:17:25;11.40;99.90
7494;DHT22;3788;49.902;8.590;2023-04-16T10:19:54;11.60;99.90
7494;DHT22;3788;49.902;8.590;2023-04-16T10:22:21;11.80;99.90
7494;DHT22;3788;49.902;8.590;2023-04-16T10:24:49;12.00;99.90
7494;DHT22;3788;49.902;8.590;2023-04-16T10:27:18;12.10;99.90
7494;DHT22;3788;49.902;8.590;2023-04-16T10:29:46;12.00;99.90
7494;DHT22;3788;49.902;8.590;2023-04-16T10:32:13;12.00;99.90
7494;DHT22;3788;49.902;8.590;2023-04-16T10:34:41;12.00;99.90
7494;DHT22;3788;49.902;8.590;2023-04-16T10:37:08;11.90;99.90
7494;DHT22;3788;49.902;8.590;2023-04-16T10:39:35;11.90;99.90
7494;DHT22;3788;49.902;8.590;2023-04-16T10:42:06;11.90;99.90
7494;DHT22;3788;49.902;8.590;2023-04-16T10:44:35;11.80;99.90
7494;DHT22;3788;49.902;8.590;2023-04-16T10:47:02;11.80;99.90
7494;DHT22;3788;49.902;8.590;2023-04-16T10:49:28;11.70;99.90
7494;DHT22;3788;49.902;8.590;2023-04-16T10:51:56;11.70;99.90
7494;DHT22;3788;49.902;8.590;2023-04-16T10:54:25;11.70;99.90
7494;DHT22;3788;49.902;8.590;2023-04-16T10:56:54;11.70;99.90
7494;DHT22;3788;49.902;8.590;2023-04-16T10:59:22;11.70;99.90
7494;DHT22;3788;49.902;8.590;2023-04-16T11:01:53;11.70;99.90
7494;DHT22;3788;49.902;8.590;2023-04-16T11:04:27;11.70;99.90
7494;DHT22;3788;49.902;8.590;2023-04-16T11:07:02;11.80;99.90
7494;DHT22;3788;49.902;8.590;2023-04-16T11:09:46;11.80;99.90
7494;DHT22;3788;49.902;8.590;2023-04-16T11:12:17;11.70;99.90
7494;DHT22;3788;49.902;8.590;2023-04-16T11:14:47;11.70;99.90
7494;DHT22;3788;49.902;8.590;2023-04-16T11:17:15;11.70;99.90
7494;DHT22;3788;49.902;8.590;2023-04-16T11:19:43;11.70;99.90
7494;DHT22;3788;49.902;8.590;2023-04-16T11:22:11;11.70;99.90
7494;DHT22;3788;49.902;8.590;2023-04-16T11:24:39;11.70;99.90
7494;DHT22;3788;49.902;8.590;2023-04-16T11:27:06;11.70;99.90
7494;DHT22;3788;49.902;8.590;2023-04-16T11:29:33;11.70;99.90
7494;DHT22;3788;49.902;8.590;2023-04-16T11:32:00;11.70;99.90
7494;DHT22;3788;49.902;8.590;2023-04-16T11:34:28;11.70;99.90
7494;DHT22;3788;49.902;8.590;2023-04-16T11:36:55;11.70;99.90
7494;DHT22;3788;49.902;8.590;2023-04-16T11:39:21;11.80;99.90
7494;DHT22;3788;49.902;8.590;2023-04-16T11:41:50;11.80;99.90
7494;DHT22;3788;49.902;8.590;2023-04-16T11:44:18;11.80;99.90
7494;DHT22;3788;49.902;8.590;2023-04-16T11:46:45;11.80;99.90
7494;DHT22;3788;49.902;8.590;2023-04-16T11:49:12;11.80;99.90
7494;DHT22;3788;49.902;8.590;2023-04-16T11:51:42;11.80;99.90
7494;DHT22;3788;49.902;8.590;2023-04-16T11:54:19;11.90;99.90
7494;DHT22;3788;49.902;8.590;2023-04-16T11:56:47;11.80;99.90
7494;DHT22;3788;49.902;8.590;2023-04-16T11:59:16;11.80;99.90
7494;DHT22;3788;49.902;8.590;2023-04-16T12:01:45;11.80;99.90
7494;DHT22;3788;49.902;8.590;2023-04-16T12:04:13;11.90;99.90
7494;DHT22;3788;49.902;8.590;2023-04-16T12:07:05;11.90;99.90
7494;DHT22;3788;49.902;8.590;2023-04-16T12:09:32;11.90;99.90
7494;DHT22;3788;49.902;8.590;2023-04-16T12:12:00;11.90;99.90
7494;DHT22;3788;49.902;8.590;2023-04-16T12:14:27;11.90;99.90
7494;DHT22;3788;49.902;8.590;2023-04-16T12:16:54;12.00;99.90
7494;DHT22;3788;49.902;8.590;2023-04-16T12:19:21;12.10;99.90
7494;DHT22;3788;49.902;8.590;2023-04-16T12:21:49;12.20;99.90
7494;DHT22;3788;49.902;8.590;2023-04-16T12:24:17;12.30;99.90
7494;DHT22;3788;49.902;8.590;2023-04-16T12:26:51;12.50;99.90
7494;DHT22;3788;49.902;8.590;2023-04-16T12:29:21;12.70;99.90
7494;DHT22;3788;49.902;8.590;2023-04-16T12:31:50;12.80;99.90
7494;DHT22;3788;49.902;8.590;2023-04-16T12:34:20;12.90;99.90
7494;DHT22;3788;49.902;8.590;2023-04-16T12:37:04;13.00;99.90
7494;DHT22;3788;49.902;8.590;2023-04-16T12:39:34;13.00;99.90
7494;DHT22;3788;49.902;8.590;2023-04-16T12:42:01;13.00;99.90
7494;DHT22;3788;49.902;8.590;2023-04-16T12:44:29;12.90;99.90
7494;DHT22;3788;49.902;8.590;2023-04-16T12:46:56;12.80;99.90
7494;DHT22;3788;49.902;8.590;2023-04-16T12:49:23;12.80;99.90
7494;DHT22;3788;49.902;8.590;2023-04-16T12:51:51;12.70;99.90
7494;DHT22;3788;49.902;8.590;2023-04-16T12:54:18;12.60;99.90
7494;DHT22;3788;49.902;8.590;2023-04-16T12:56:45;12.50;99.90
7494;DHT22;3788;49.902;8.590;2023-04-16T12:59:12;12.40;99.90
7494;DHT22;3788;49.902;8.590;2023-04-16T13:01:39;12.40;99.90
7494;DHT22;3788;49.902;8.590;2023-04-16T13:04:05;12.40;99.90
7494;DHT22;3788;49.902;8.590;2023-04-16T13:06:33;12.40;99.90
7494;DHT22;3788;49.902;8.590;2023-04-16T13:09:03;12.40;99.90
7494;DHT22;3788;49.902;8.590;2023-04-16T13:11:30;12.40;99.90
7494;DHT22;3788;49.902;8.590;2023-04-16T13:13:57;12.40;99.90
7494;DHT22;3788;49.902;8.590;2023-04-16T13:16:24;12.40;99.90
7494;DHT22;3788;49.902;8.590;2023-04-16T13:18:51;12.50;99.90
7494;DHT22;3788;49.902;8.590;2023-04-16T13:21:17;12.50;99.90
7494;DHT22;3788;49.902;8.590;2023-04-16T13:23:44;12.50;99.90
7494;DHT22;3788;49.902;8.590;2023-04-16T13:26:13;12.50;99.90
7494;DHT22;3788;49.902;8.590;2023-04-16T13:28:40;12.50;99.90
7494;DHT22;3788;49.902;8.590;2023-04-16T13:31:07;12.50;99.90
7494;DHT22;3788;49.902;8.590;2023-04-16T13:33:34;12.40;99.90
7494;DHT22;3788;49.902;8.590;2023-04-16T13:36:00;12.40;99.90
7494;DHT22;3788;49.902;8.590;2023-04-16T13:38:27;12.40;99.90
7494;DHT22;3788;49.902;8.590;2023-04-16T13:40:54;12.50;99.90
7494;DHT22;3788;49.902;8.590;2023-04-16T13:43:22;12.60;99.90
7494;DHT22;3788;49.902;8.590;2023-04-16T13:45:50;12.50;99.90
7494;DHT22;3788;49.902;8.590;2023-04-16T13:48:17;12.60;99.90
7494;DHT22;3788;49.902;8.590;2023-04-16T13:50:43;12.70;99.90
7494;DHT22;3788;49.902;8.590;2023-04-16T13:53:10;12.80;99.90
7494;DHT22;3788;49.902;8.590;2023-04-16T13:55:37;12.90;99.90
7494;DHT22;3788;49.902;8.590;2023-04-16T13:58:04;13.10;99.90
7494;DHT22;3788;49.902;8.590;2023-04-16T14:00:33;13.20;99.90
7494;DHT22;3788;49.902;8.590;2023-04-16T14:03:00;13.40;99.90
7494;DHT22;3788;49.902;8.590;2023-04-16T14:05:27;13.40;99.90
7494;DHT22;3788;49.902;8.590;2023-04-16T14:07:53;13.50;99.90
7494;DHT22;3788;49.902;8.590;2023-04-16T14:10:20;13.60;99.90
7494;DHT22;3788;49.902;8.590;2023-04-16T14:12:56;13.70;99.90
7494;DHT22;3788;49.902;8.590;2023-04-16T14:15:23;13.80;99.90
7494;DHT22;3788;49.902;8.590;2023-04-16T14:17:53;13.80;99.90
7494;DHT22;3788;49.902;8.590;2023-04-16T14:20:20;13.80;99.90
7494;DHT22;3788;49.902;8.590;2023-04-16T14:22:49;13.80;99.90
7494;DHT22;3788;49.902;8.590;2023-04-16T14:25:16;13.70;99.90
7494;DHT22;3788;49.902;8.590;2023-04-16T14:27:43;13.60;99.90
7494;DHT22;3788;49.902;8.590;2023-04-16T14:30:10;13.50;99.90
7494;DHT22;3788;49.902;8.590;2023-04-16T14:32:37;13.50;99.90
7494;DHT22;3788;49.902;8.590;2023-04-16T14:35:06;13.50;99.90
7494;DHT22;3788;49.902;8.590;2023-04-16T14:37:33;13.50;99.90
7494;DHT22;3788;49.902;8.590;2023-04-16T14:40:01;13.60;99.90
7494;DHT22;3788;49.902;8.590;2023-04-16T14:42:28;13.70;99.90
7494;DHT22;3788;49.902;8.590;2023-04-16T14:44:55;13.70;99.90
7494;DHT22;3788;49.902;8.590;2023-04-16T14:47:22;13.60;99.90
7494;DHT22;3788;49.902;8.590;2023-04-16T14:49:49;13.50;99.90
7494;DHT22;3788;49.902;8.590;2023-04-16T14:52:17;13.40;99.90
7494;DHT22;3788;49.902;8.590;2023-04-16T14:54:44;13.30;99.90
7494;DHT22;3788;49.902;8.590;2023-04-16T14:57:12;13.20;99.90
7494;DHT22;3788;49.902;8.590;2023-04-16T14:59:42;13.10;99.90
7494;DHT22;3788;49.902;8.590;2023-04-16T15:02:11;13.00;99.90
7494;DHT22;3788;49.902;8.590;2023-04-16T15:04:38;13.00;99.90
7494;DHT22;3788;49.902;8.590;2023-04-16T15:07:07;12.90;99.90
7494;DHT22;3788;49.902;8.590;2023-04-16T15:09:35;12.90;99.90
7494;DHT22;3788;49.902;8.590;2023-04-16T15:12:03;12.90;99.90
7494;DHT22;3788;49.902;8.590;2023-04-16T15:14:29;12.80;99.90
7494;DHT22;3788;49.902;8.590;2023-04-16T15:16:56;12.80;99.90
7494;DHT22;3788;49.902;8.590;2023-04-16T15:19:24;12.80;99.90
7494;DHT22;3788;49.902;8.590;2023-04-16T15:21:51;12.70;99.90
7494;DHT22;3788;49.902;8.590;2023-04-16T15:24:18;12.70;99.90
7494;DHT22;3788;49.902;8.590;2023-04-16T15:26:47;12.60;99.90
7494;DHT22;3788;49.902;8.590;2023-04-16T15:29:13;12.70;99.90
7494;DHT22;3788;49.902;8.590;2023-04-16T15:31:40;12.70;99.90
7494;DHT22;3788;49.902;8.590;2023-04-16T15:34:07;12.70;99.90
7494;DHT22;3788;49.902;8.590;2023-04-16T15:36:34;12.70;99.90
7494;DHT22;3788;49.902;8.590;2023-04-16T15:39:01;12.70;99.90
7494;DHT22;3788;49.902;8.590;2023-04-16T15:41:28;12.80;99.90
7494;DHT22;3788;49.902;8.590;2023-04-16T15:43:57;12.80;99.90
7494;DHT22;3788;49.902;8.590;2023-04-16T15:46:24;12.90;99.90
7494;DHT22;3788;49.902;8.590;2023-04-16T15:48:50;12.90;99.90
7494;DHT22;3788;49.902;8.590;2023-04-16T15:51:17;12.90;99.90
7494;DHT22;3788;49.902;8.590;2023-04-16T15:53:44;13.00;99.90
7494;DHT22;3788;49.902;8.590;2023-04-16T15:56:11;13.00;99.90
7494;DHT22;3788;49.902;8.590;2023-04-16T15:58:38;13.10;99.90
7494;DHT22;3788;49.902;8.590;2023-04-16T16:01:06;13.10;99.90
7494;DHT22;3788;49.902;8.590;2023-04-16T16:03:33;13.20;99.90